Time;durP1;ratioP1;P1;durP2;ratioP2;P2;SDS_P1;SDS_P2;PMS_P1;PMS_P2;Temp;Humidity;BMP_temperature;BMP_pressure;BME280_temperature;BME280_humidity;BME280_pressure;Samples;Min_cycle;Max_cycle;Signal;HPM_P1;HPM_P2
2023/07/27 00:00:22;;;;;;;;;;;;;;;16.57;79.35;100957.47;5067218;28;20147;-55
2023/07/27 00:02:47;;;;;;;;;;;;;;;16.55;79.57;100954.84;5068460;28;19963;-54
2023/07/27 00:05:13;;;;;;;;;;;;;;;16.51;80.01;100951.34;5067483;28;19912;-55
2023/07/27 00:07:38;;;;;;;;;;;;;;;16.49;79.93;100946.97;5065974;28;19928;-55
2023/07/27 00:10:03;;;;;;;;;;;;;;;16.47;80.36;100948.72;5062831;28;19916;-55
2023/07/27 00:12:28;;;;;;;;;;;;;;;16.44;80.41;100946.97;5067887;28;20286;-55
2023/07/27 00:14:54;;;;;;;;;;;;;;;16.41;79.85;100952.22;5066168;28;19920;-53
2023/07/27 00:17:19;;;;;;;;;;;;;;;16.38;80.50;100946.97;5065643;28;19919;-55
2023/07/27 00:19:44;;;;;;;;;;;;;;;16.38;82.48;100940.81;5066588;28;19920;-55
2023/07/27 00:22:09;;;;;;;;;;;;;;;16.38;82.45;100928.56;5065157;28;19916;-54
2023/07/27 00:24:35;;;;;;;;;;;;;;;16.41;81.45;100931.19;5066360;28;20412;-52
2023/07/27 00:27:00;;;;;;;;;;;;;;;16.40;81.34;100932.06;5065828;28;20374;-55
2023/07/27 00:29:25;;;;;;;;;;;;;;;16.38;82.17;100931.19;5066895;28;19993;-54
2023/07/27 00:31:50;;;;;;;;;;;;;;;16.36;83.19;100925.03;5067136;28;20381;-54
2023/07/27 00:34:16;;;;;;;;;;;;;;;16.37;82.88;100928.56;5065446;28;19908;-55
2023/07/27 00:36:41;;;;;;;;;;;;;;;16.37;81.97;100923.31;5066853;28;19916;-55
2023/07/27 00:39:06;;;;;;;;;;;;;;;16.34;82.56;100919.78;5066674;28;19916;-55
2023/07/27 00:41:32;;;;;;;;;;;;;;;16.34;83.53;100914.53;5067336;28;19997;-55
2023/07/27 00:43:57;;;;;;;;;;;;;;;16.32;83.81;100918.91;5067119;28;19920;-55
2023/07/27 00:46:22;;;;;;;;;;;;;;;16.27;84.05;100911.88;5065092;28;19971;-55
2023/07/27 00:48:47;;;;;;;;;;;;;;;16.21;83.64;100906.63;5067267;28;20404;-55
2023/07/27 00:51:13;;;;;;;;;;;;;;;16.19;83.64;100911.00;5080154;28;19912;-54
2023/07/27 00:53:39;;;;;;;;;;;;;;;16.16;83.85;100910.13;5065688;28;19924;-55
2023/07/27 00:56:05;;;;;;;;;;;;;;;16.19;84.05;100897.84;5065922;28;19920;-55
2023/07/27 00:58:30;;;;;;;;;;;;;;;16.18;84.03;100894.34;5064750;28;19916;-55
2023/07/27 01:00:56;;;;;;;;;;;;;;;16.16;83.90;100896.09;5065764;28;19945;-54
2023/07/27 01:03:22;;;;;;;;;;;;;;;16.15;84.16;100879.44;5066664;28;19916;-55
2023/07/27 01:05:48;;;;;;;;;;;;;;;16.15;83.94;100878.59;5068157;28;19950;-55
2023/07/27 01:08:13;;;;;;;;;;;;;;;16.14;84.73;100869.78;5064842;28;20471;-54
2023/07/27 01:10:42;;;;;;;;;;;;;;;16.09;84.31;100870.66;5065590;28;19970;-54
2023/07/27 01:13:14;;;;;;;;;;;;;;;16.10;84.39;100862.78;5059386;28;19912;-55
2023/07/27 01:15:43;;;;;;;;;;;;;;;16.13;83.37;100862.81;5062744;28;21364;-55
2023/07/27 01:18:15;;;;;;;;;;;;;;;16.10;84.35;100860.16;5060881;28;19943;-55
2023/07/27 01:20:50;;;;;;;;;;;;;;;16.04;84.41;100857.53;5060479;28;19969;-55
2023/07/27 01:23:22;;;;;;;;;;;;;;;16.00;84.41;100850.50;5055910;28;20053;-55
2023/07/27 01:25:57;;;;;;;;;;;;;;;15.95;84.27;100853.13;5059964;28;19920;-55
2023/07/27 01:28:31;;;;;;;;;;;;;;;15.90;85.26;100846.09;5057956;28;19916;-55
2023/07/27 01:31:00;;;;;;;;;;;;;;;15.85;86.90;100845.25;5058788;28;20017;-55
2023/07/27 01:33:28;;;;;;;;;;;;;;;15.81;86.07;100850.50;5063274;28;19919;-55
2023/07/27 01:36:00;;;;;;;;;;;;;;;15.82;88.34;100836.47;5063810;28;19916;-55
2023/07/27 01:38:27;;;;;;;;;;;;;;;15.77;86.51;100842.53;5064437;28;19916;-55
2023/07/27 01:40:53;;;;;;;;;;;;;;;15.67;87.60;100833.78;5065928;28;20545;-55
2023/07/27 01:43:19;;;;;;;;;;;;;;;15.63;88.33;100830.25;5066136;28;19947;-55
2023/07/27 01:45:45;;;;;;;;;;;;;;;15.58;89.98;100820.63;5064213;28;20402;-55
2023/07/27 01:48:11;;;;;;;;;;;;;;;15.58;89.66;100815.38;5064495;28;19912;-55
2023/07/27 01:50:38;;;;;;;;;;;;;;;15.59;90.61;100819.75;5065125;28;20378;-55
2023/07/27 01:53:04;;;;;;;;;;;;;;;15.59;89.09;100818.00;5065667;28;19938;-55
2023/07/27 01:55:29;;;;;;;;;;;;;;;15.60;87.61;100813.63;5064225;28;20375;-55
2023/07/27 01:57:56;;;;;;;;;;;;;;;15.55;90.71;100818.00;5063379;28;19920;-55
2023/07/27 02:00:22;;;;;;;;;;;;;;;15.47;89.96;100805.72;5066467;28;19912;-55
2023/07/27 02:02:47;;;;;;;;;;;;;;;15.41;89.81;100799.56;5061496;28;19920;-55
2023/07/27 02:05:12;;;;;;;;;;;;;;;15.35;90.06;100799.53;5062915;28;19916;-56
2023/07/27 02:07:38;;;;;;;;;;;;;;;15.29;91.44;100793.41;5062070;28;19916;-55
2023/07/27 02:10:03;;;;;;;;;;;;;;;15.27;89.98;100789.03;5061078;28;19912;-55
2023/07/27 02:12:32;;;;;;;;;;;;;;;15.21;91.30;100783.75;5064934;28;19917;-55
2023/07/27 02:15:02;;;;;;;;;;;;;;;15.17;91.75;100782.00;5061836;28;19931;-55
2023/07/27 02:17:48;;;;;;;;;;;;;;;15.10;90.92;100771.44;5064677;28;19912;-55
2023/07/27 02:20:16;;;;;;;;;;;;;;;15.08;92.19;100761.84;5061807;28;20386;-55
2023/07/27 02:22:42;;;;;;;;;;;;;;;15.05;94.21;100757.47;5062915;28;19940;-55
2023/07/27 02:25:08;;;;;;;;;;;;;;;15.04;92.46;100750.44;5062374;28;19916;-55
2023/07/27 02:27:33;;;;;;;;;;;;;;;15.04;92.51;100747.81;5058979;28;19995;-55
2023/07/27 02:29:59;;;;;;;;;;;;;;;15.05;96.30;100741.72;5062519;28;20365;-55
2023/07/27 02:32:25;;;;;;;;;;;;;;;15.01;94.44;100739.06;5059929;28;19965;-55
2023/07/27 02:34:50;;;;;;;;;;;;;;;15.01;93.88;100742.56;5062181;28;19916;-55
2023/07/27 02:37:15;;;;;;;;;;;;;;;15.03;92.17;100737.31;5063614;28;20375;-55
2023/07/27 02:39:40;;;;;;;;;;;;;;;15.01;95.15;100728.59;5061649;28;21320;-55
2023/07/27 02:42:05;;;;;;;;;;;;;;;15.00;92.42;100722.44;5059092;28;20446;-56
2023/07/27 02:44:31;;;;;;;;;;;;;;;14.99;93.85;100718.09;5060998;28;20431;-55
2023/07/27 02:46:56;;;;;;;;;;;;;;;14.98;92.99;100715.47;5060678;28;19919;-55
2023/07/27 02:49:21;;;;;;;;;;;;;;;14.98;94.21;100712.84;5064055;28;20456;-55
2023/07/27 02:51:46;;;;;;;;;;;;;;;15.00;95.70;100708.44;5064159;28;19919;-54
2023/07/27 02:54:11;;;;;;;;;;;;;;;15.02;95.84;100704.97;5063208;28;20457;-54
2023/07/27 02:56:37;;;;;;;;;;;;;;;15.08;94.66;100707.59;5061314;28;19920;-55
2023/07/27 02:59:02;;;;;;;;;;;;;;;15.08;95.12;100704.97;5059300;28;19924;-56
2023/07/27 03:01:27;;;;;;;;;;;;;;;15.07;94.43;100697.97;5061184;28;19916;-55
2023/07/27 03:03:52;;;;;;;;;;;;;;;15.05;94.51;100694.47;5060387;28;19917;-55
2023/07/27 03:06:18;;;;;;;;;;;;;;;15.05;95.56;100689.22;5064136;28;20382;-55
2023/07/27 03:08:43;;;;;;;;;;;;;;;15.06;96.09;100696.25;5060297;28;19919;-55
2023/07/27 03:11:08;;;;;;;;;;;;;;;15.07;94.67;100697.09;5063970;28;19934;-55
2023/07/27 03:13:33;;;;;;;;;;;;;;;15.06;95.16;100684.84;5060154;28;20457;-56
2023/07/27 03:16:01;;;;;;;;;;;;;;;15.02;94.40;100683.97;5064446;28;20429;-55
2023/07/27 03:18:27;;;;;;;;;;;;;;;15.00;96.17;100676.97;5061253;28;19931;-55
2023/07/27 03:20:52;;;;;;;;;;;;;;;14.98;96.48;100668.22;5060612;28;19912;-55
2023/07/27 03:23:17;;;;;;;;;;;;;;;14.95;96.81;100656.84;5062548;28;20069;-55
2023/07/27 03:25:43;;;;;;;;;;;;;;;14.92;95.33;100654.22;5068063;28;20298;-55
2023/07/27 03:28:08;;;;;;;;;;;;;;;14.92;96.17;100650.72;5066401;28;19966;-55
2023/07/27 03:30:34;;;;;;;;;;;;;;;14.89;96.38;100634.97;5066980;28;19916;-55
2023/07/27 03:32:59;;;;;;;;;;;;;;;14.87;98.04;100627.06;5064992;28;20354;-55
2023/07/27 03:35:24;;;;;;;;;;;;;;;14.84;96.82;100620.97;5072425;28;19931;-55
2023/07/27 03:37:50;;;;;;;;;;;;;;;14.79;98.39;100618.31;5066112;28;19948;-55
2023/07/27 03:40:16;;;;;;;;;;;;;;;14.78;98.90;100603.44;5071238;28;19908;-55
2023/07/27 03:42:41;;;;;;;;;;;;;;;14.77;98.76;100594.72;5067567;28;19936;-55
2023/07/27 03:45:06;;;;;;;;;;;;;;;14.73;98.90;100589.44;5054158;28;19943;-55
2023/07/27 03:47:32;;;;;;;;;;;;;;;14.73;100.00;100584.19;5053786;28;19953;-55
2023/07/27 03:49:57;;;;;;;;;;;;;;;14.72;98.50;100580.72;5065416;28;19954;-55
2023/07/27 03:52:22;;;;;;;;;;;;;;;14.75;100.00;100577.22;5070857;28;20405;-55
2023/07/27 03:54:47;;;;;;;;;;;;;;;14.76;100.00;100569.34;5073953;28;19931;-55
2023/07/27 03:57:12;;;;;;;;;;;;;;;14.74;100.00;100570.22;5073625;28;19915;-55
2023/07/27 03:59:38;;;;;;;;;;;;;;;14.76;99.34;100565.88;5071738;28;19916;-55
2023/07/27 04:02:03;;;;;;;;;;;;;;;14.76;100.00;100561.50;5066241;28;19912;-55
2023/07/27 04:04:28;;;;;;;;;;;;;;;14.72;100.00;100571.97;5061127;28;19916;-55
2023/07/27 04:06:53;;;;;;;;;;;;;;;14.70;100.00;100571.06;5067047;28;19998;-55
2023/07/27 04:09:19;;;;;;;;;;;;;;;14.70;100.00;100571.97;5063867;28;19919;-55
2023/07/27 04:11:44;;;;;;;;;;;;;;;14.71;100.00;100568.47;5068273;28;20018;-55
2023/07/27 04:14:09;;;;;;;;;;;;;;;14.69;100.00;100564.09;5069649;28;20014;-55
2023/07/27 04:16:36;;;;;;;;;;;;;;;14.71;100.00;100557.09;5068054;28;19920;-54
2023/07/27 04:19:01;;;;;;;;;;;;;;;14.71;100.00;100568.47;5070110;28;19912;-54
2023/07/27 04:21:26;;;;;;;;;;;;;;;14.68;100.00;100552.72;5069642;28;19916;-55
2023/07/27 04:23:51;;;;;;;;;;;;;;;14.69;100.00;100549.25;5068164;28;19920;-54
2023/07/27 04:26:17;;;;;;;;;;;;;;;14.69;100.00;100537.88;5067736;28;20291;-54
2023/07/27 04:28:42;;;;;;;;;;;;;;;14.68;100.00;100530.88;5068940;28;19920;-55
2023/07/27 04:31:07;;;;;;;;;;;;;;;14.67;100.00;100535.25;5062490;28;20519;-55
2023/07/27 04:33:32;;;;;;;;;;;;;;;14.63;100.00;100525.63;5065796;28;20288;-55
2023/07/27 04:35:59;;;;;;;;;;;;;;;14.59;100.00;100523.84;5059110;28;19916;-54
2023/07/27 04:38:24;;;;;;;;;;;;;;;14.56;100.00;100519.47;5065114;28;19913;-55
2023/07/27 04:40:51;;;;;;;;;;;;;;;14.56;100.00;100518.59;5066064;28;20018;-55
2023/07/27 04:43:16;;;;;;;;;;;;;;;14.57;100.00;100525.56;5064611;28;19916;-55
2023/07/27 04:45:41;;;;;;;;;;;;;;;14.59;100.00;100515.97;5059938;28;19965;-55
2023/07/27 04:48:07;;;;;;;;;;;;;;;14.59;100.00;100506.34;5066564;28;20338;-55
2023/07/27 04:50:33;;;;;;;;;;;;;;;14.59;100.00;100506.34;5063747;28;19923;-55
2023/07/27 04:52:58;;;;;;;;;;;;;;;14.57;100.00;100504.59;5066572;28;19913;-55
2023/07/27 04:55:23;;;;;;;;;;;;;;;14.57;100.00;100504.59;5068462;28;19919;-55
2023/07/27 04:57:48;;;;;;;;;;;;;;;14.56;100.00;100502.88;5071270;28;20345;-55
2023/07/27 05:00:13;;;;;;;;;;;;;;;14.59;100.00;100497.63;5063077;28;19991;-55
2023/07/27 05:02:39;;;;;;;;;;;;;;;14.60;100.00;100495.00;5066003;28;19923;-54
2023/07/27 05:05:04;;;;;;;;;;;;;;;14.63;100.00;100493.28;5066244;28;19966;-55
2023/07/27 05:07:29;;;;;;;;;;;;;;;14.65;100.00;100497.66;5063348;28;20290;-54
2023/07/27 05:09:54;;;;;;;;;;;;;;;14.67;100.00;100487.16;5068430;28;19932;-55
2023/07/27 05:12:20;;;;;;;;;;;;;;;14.68;100.00;100481.91;5062137;28;19956;-55
2023/07/27 05:14:45;;;;;;;;;;;;;;;14.70;100.00;100484.53;5063997;28;19982;-55
2023/07/27 05:17:11;;;;;;;;;;;;;;;14.69;100.00;100478.44;5068613;28;19970;-55
2023/07/27 05:19:36;;;;;;;;;;;;;;;14.68;100.00;100476.66;5066904;28;19921;-55
2023/07/27 05:22:01;;;;;;;;;;;;;;;14.69;100.00;100472.31;5068777;28;19944;-55
2023/07/27 05:24:26;;;;;;;;;;;;;;;14.68;100.00;100471.44;5067341;28;19924;-55
2023/07/27 05:26:51;;;;;;;;;;;;;;;14.70;100.00;100472.31;5056941;28;20197;-55
2023/07/27 05:29:17;;;;;;;;;;;;;;;14.71;100.00;100465.31;5066201;28;19912;-55
2023/07/27 05:31:42;;;;;;;;;;;;;;;14.75;100.00;100465.31;5059812;28;20268;-55
2023/07/27 05:34:08;;;;;;;;;;;;;;;14.77;100.00;100460.97;5068341;28;19912;-55
2023/07/27 05:36:34;;;;;;;;;;;;;;;14.79;100.00;100460.97;5054802;28;20400;-56
2023/07/27 05:38:59;;;;;;;;;;;;;;;14.80;100.00;100452.19;5063487;28;20394;-55
2023/07/27 05:41:24;;;;;;;;;;;;;;;14.83;100.00;100456.56;5067247;28;19999;-55
2023/07/27 05:43:49;;;;;;;;;;;;;;;14.87;100.00;100447.81;5062518;28;20457;-56
2023/07/27 05:46:15;;;;;;;;;;;;;;;14.85;100.00;100458.31;5062910;28;19916;-55
2023/07/27 05:48:40;;;;;;;;;;;;;;;14.86;100.00;100448.69;5062640;28;20011;-56
2023/07/27 05:51:05;;;;;;;;;;;;;;;14.88;100.00;100445.19;5068526;28;19916;-56
2023/07/27 05:53:30;;;;;;;;;;;;;;;14.92;100.00;100443.47;5057072;28;19917;-56
2023/07/27 05:55:56;;;;;;;;;;;;;;;14.95;100.00;100446.09;5069926;28;19939;-56
2023/07/27 05:58:21;;;;;;;;;;;;;;;14.99;100.00;100441.69;5062881;28;19999;-56
2023/07/27 06:00:46;;;;;;;;;;;;;;;15.01;100.00;100439.97;5055442;28;20310;-57
2023/07/27 06:03:11;;;;;;;;;;;;;;;15.02;100.00;100447.81;5060130;28;19978;-57
2023/07/27 06:05:42;;;;;;;;;;;;;;;15.02;100.00;100445.19;5070442;28;20309;-57
2023/07/27 06:08:07;;;;;;;;;;;;;;;15.05;100.00;100436.47;5059133;28;19979;-57
2023/07/27 06:10:32;;;;;;;;;;;;;;;15.07;100.00;100434.69;5058668;28;19960;-57
2023/07/27 06:12:58;;;;;;;;;;;;;;;15.12;100.00;100431.19;5063676;28;19989;-57
2023/07/27 06:15:23;;;;;;;;;;;;;;;15.15;100.00;100429.41;5068202;28;19994;-57
2023/07/27 06:17:48;;;;;;;;;;;;;;;15.18;100.00;100438.19;5067213;28;19962;-57
2023/07/27 06:20:13;;;;;;;;;;;;;;;15.23;100.00;100440.78;5066959;28;19916;-56
2023/07/27 06:22:38;;;;;;;;;;;;;;;15.26;100.00;100438.16;5064591;28;19993;-57
2023/07/27 06:25:04;;;;;;;;;;;;;;;15.28;100.00;100434.66;5065170;28;20285;-56
2023/07/27 06:27:30;;;;;;;;;;;;;;;15.33;100.00;100439.03;5068520;28;19982;-57
2023/07/27 06:29:55;;;;;;;;;;;;;;;15.33;100.00;100421.50;5062978;28;20007;-57
2023/07/27 06:32:21;;;;;;;;;;;;;;;15.36;100.00;100421.50;5067731;28;19912;-57
2023/07/27 06:34:46;;;;;;;;;;;;;;;15.40;100.00;100414.50;5061232;28;19919;-57
2023/07/27 06:37:11;;;;;;;;;;;;;;;15.46;100.00;100410.09;5056592;28;19931;-57
2023/07/27 06:39:37;;;;;;;;;;;;;;;15.52;100.00;100410.97;5070158;28;19915;-57
2023/07/27 06:42:02;;;;;;;;;;;;;;;15.57;100.00;100407.44;5065483;28;20372;-57
2023/07/27 06:44:27;;;;;;;;;;;;;;;15.59;100.00;100403.03;5061259;28;19995;-57
2023/07/27 06:46:52;;;;;;;;;;;;;;;15.61;100.00;100400.41;5065189;28;20003;-57
2023/07/27 06:49:18;;;;;;;;;;;;;;;15.61;100.00;100406.53;5067780;28;20313;-57
2023/07/27 06:51:43;;;;;;;;;;;;;;;15.64;100.00;100406.53;5058469;28;20019;-57
2023/07/27 06:54:08;;;;;;;;;;;;;;;15.68;100.00;100406.50;5064689;28;20404;-57
2023/07/27 06:56:34;;;;;;;;;;;;;;;15.69;100.00;100401.25;5061466;28;19970;-57
2023/07/27 06:58:59;;;;;;;;;;;;;;;15.72;100.00;100408.25;5063207;28;19916;-57
2023/07/27 07:01:25;;;;;;;;;;;;;;;15.74;100.00;100407.38;5064820;28;20398;-56
2023/07/27 07:03:50;;;;;;;;;;;;;;;15.76;100.00;100402.09;5066803;28;20409;-57
2023/07/27 07:06:15;;;;;;;;;;;;;;;15.78;100.00;100406.47;5061588;28;19919;-56
2023/07/27 07:08:40;;;;;;;;;;;;;;;15.83;100.00;100403.84;5065812;28;19919;-57
2023/07/27 07:11:06;;;;;;;;;;;;;;;15.89;100.00;100398.56;5061425;28;19924;-58
2023/07/27 07:13:31;;;;;;;;;;;;;;;15.90;100.00;100410.81;5065509;28;19955;-58
2023/07/27 07:15:56;;;;;;;;;;;;;;;15.92;100.00;100410.81;5066021;28;19912;-58
2023/07/27 07:18:21;;;;;;;;;;;;;;;15.96;100.00;100407.25;5059989;28;19920;-58
2023/07/27 07:20:46;;;;;;;;;;;;;;;15.98;100.00;100411.63;5058042;28;19939;-57
2023/07/27 07:23:12;;;;;;;;;;;;;;;16.03;100.00;100413.38;5063804;28;19978;-58
2023/07/27 07:25:37;;;;;;;;;;;;;;;16.06;100.00;100410.72;5066389;28;19916;-58
2023/07/27 07:28:02;;;;;;;;;;;;;;;16.07;100.00;100408.06;5059858;28;19920;-58
2023/07/27 07:30:27;;;;;;;;;;;;;;;16.10;100.00;100409.81;5063327;28;19924;-58
2023/07/27 07:32:53;;;;;;;;;;;;;;;16.11;100.00;100407.19;5060689;28;20413;-58
2023/07/27 07:35:19;;;;;;;;;;;;;;;16.14;100.00;100407.16;5062295;28;19919;-57
2023/07/27 07:37:44;;;;;;;;;;;;;;;16.16;100.00;100400.16;5061494;28;19908;-58
2023/07/27 07:40:10;;;;;;;;;;;;;;;16.21;100.00;100399.25;5068586;28;20011;-57
2023/07/27 07:42:35;;;;;;;;;;;;;;;16.29;100.00;100392.16;5066314;28;19919;-57
2023/07/27 07:45:00;;;;;;;;;;;;;;;16.34;100.00;100393.03;5062544;28;19920;-58
2023/07/27 07:47:25;;;;;;;;;;;;;;;16.41;100.00;100388.56;5061932;28;19912;-58
2023/07/27 07:49:50;;;;;;;;;;;;;;;16.46;100.00;100385.00;5064924;28;19919;-58
2023/07/27 07:52:16;;;;;;;;;;;;;;;16.48;100.00;100393.78;5063546;28;20509;-58
2023/07/27 07:54:41;;;;;;;;;;;;;;;16.53;100.00;100391.13;5053405;28;19931;-58
2023/07/27 07:57:06;;;;;;;;;;;;;;;16.53;100.00;100383.22;5063319;28;19916;-58
2023/07/27 07:59:31;;;;;;;;;;;;;;;16.54;100.00;100387.59;5067746;28;19923;-58
2023/07/27 08:01:56;;;;;;;;;;;;;;;16.57;100.00;100384.06;5065135;28;19912;-58
2023/07/27 08:04:22;;;;;;;;;;;;;;;16.59;100.00;100379.66;5069199;28;19914;-58
2023/07/27 08:06:47;;;;;;;;;;;;;;;16.59;100.00;100388.41;5062477;28;19920;-58
2023/07/27 08:09:12;;;;;;;;;;;;;;;16.62;100.00;100396.28;5060783;28;19923;-58
2023/07/27 08:11:37;;;;;;;;;;;;;;;16.64;100.00;100386.63;5063186;28;20348;-58
2023/07/27 08:14:03;;;;;;;;;;;;;;;16.65;100.00;100383.09;5066527;28;20275;-58
2023/07/27 08:16:29;;;;;;;;;;;;;;;16.67;100.00;100377.84;5064831;28;19931;-58
2023/07/27 08:18:54;;;;;;;;;;;;;;;16.68;100.00;100387.47;5066308;28;19943;-59
2023/07/27 08:21:19;;;;;;;;;;;;;;;16.75;100.00;100383.91;5068013;28;19916;-58
2023/07/27 08:23:44;;;;;;;;;;;;;;;16.76;100.00;100380.38;5068196;28;19920;-58
2023/07/27 08:26:09;;;;;;;;;;;;;;;16.72;100.00;100378.66;5068605;28;20394;-58
2023/07/27 08:28:35;;;;;;;;;;;;;;;16.83;100.00;100382.06;5069267;28;20001;-58
2023/07/27 08:31:01;;;;;;;;;;;;;;;16.82;100.00;100380.31;5067811;28;19913;-59
2023/07/27 08:33:26;;;;;;;;;;;;;;;16.92;100.00;100375.03;5066622;28;19927;-59
2023/07/27 08:35:51;;;;;;;;;;;;;;;16.95;100.00;100377.63;5070694;28;19920;-58
2023/07/27 08:38:17;;;;;;;;;;;;;;;17.10;100.00;100373.94;5068965;28;20308;-58
2023/07/27 08:40:51;;;;;;;;;;;;;;;16.96;100.00;100374.06;5068848;28;19919;-58
2023/07/27 08:43:17;;;;;;;;;;;;;;;17.03;100.00;100378.38;5068251;28;20003;-58
2023/07/27 08:45:42;;;;;;;;;;;;;;;17.01;100.00;100369.66;5069556;28;20362;-58
2023/07/27 08:48:08;;;;;;;;;;;;;;;17.08;100.00;100368.69;5066901;28;20425;-58
2023/07/27 08:50:33;;;;;;;;;;;;;;;17.07;100.00;100374.84;5062445;28;19916;-58
2023/07/27 08:52:58;;;;;;;;;;;;;;;17.20;100.00;100375.56;5065385;28;19963;-58
2023/07/27 08:55:23;;;;;;;;;;;;;;;17.08;100.00;100357.31;5065702;28;19920;-58
2023/07/27 08:57:49;;;;;;;;;;;;;;;17.23;100.00;100369.41;5065736;28;19916;-58
2023/07/27 09:00:14;;;;;;;;;;;;;;;17.17;100.00;100362.44;5061447;28;19916;-58
2023/07/27 09:02:40;;;;;;;;;;;;;;;17.15;100.00;100370.38;5066693;28;19963;-58
2023/07/27 09:05:06;;;;;;;;;;;;;;;17.19;100.00;100371.19;5061666;28;19920;-58
2023/07/27 09:07:31;;;;;;;;;;;;;;;17.24;100.00;100376.44;5062575;28;19912;-58
2023/07/27 09:09:56;;;;;;;;;;;;;;;17.21;100.00;100369.44;5070761;28;19916;-58
2023/07/27 09:12:23;;;;;;;;;;;;;;;17.24;100.00;100371.16;5062346;28;19908;-58
2023/07/27 09:14:48;;;;;;;;;;;;;;;17.16;100.00;100368.59;5063012;28;19909;-58
2023/07/27 09:17:14;;;;;;;;;;;;;;;17.32;100.00;100362.28;5065147;28;19973;-58
2023/07/27 09:19:40;;;;;;;;;;;;;;;17.20;100.00;100365.91;5068099;28;20365;-58
2023/07/27 09:22:06;;;;;;;;;;;;;;;17.24;100.00;100371.16;5062970;28;19918;-58
2023/07/27 09:24:34;;;;;;;;;;;;;;;17.24;100.00;100366.75;5068934;28;19920;-58
2023/07/27 09:27:03;;;;;;;;;;;;;;;17.31;100.00;100367.56;5063993;28;20408;-58
2023/07/27 09:29:29;;;;;;;;;;;;;;;17.38;100.00;100366.59;5062446;28;20105;-58
2023/07/27 09:31:58;;;;;;;;;;;;;;;17.34;100.00;100357.84;5067992;28;20050;-58
2023/07/27 09:34:24;;;;;;;;;;;;;;;17.42;100.00;100359.53;5064653;28;19920;-58
2023/07/27 09:36:49;;;;;;;;;;;;;;;17.47;100.00;100369.13;5063717;28;19915;-58
2023/07/27 09:39:15;;;;;;;;;;;;;;;17.50;100.00;100368.22;5066101;28;19913;-58
2023/07/27 09:41:43;;;;;;;;;;;;;;;17.38;100.00;100359.56;5068694;28;19907;-58
2023/07/27 09:44:11;;;;;;;;;;;;;;;17.40;100.00;100362.19;5067228;28;19916;-58
2023/07/27 09:46:37;;;;;;;;;;;;;;;17.47;100.00;100360.34;5069095;28;20401;-58
2023/07/27 09:49:02;;;;;;;;;;;;;;;17.42;100.00;100359.53;5064957;28;19912;-58
2023/07/27 09:51:28;;;;;;;;;;;;;;;17.47;100.00;100360.34;5062513;28;19913;-57
2023/07/27 09:53:55;;;;;;;;;;;;;;;17.54;100.00;100362.03;5061120;28;20388;-57
2023/07/27 09:56:20;;;;;;;;;;;;;;;17.50;100.00;100360.31;5065731;28;20300;-57
2023/07/27 09:58:46;;;;;;;;;;;;;;;17.52;100.00;100356.78;5060343;28;19977;-57
2023/07/27 10:01:11;;;;;;;;;;;;;;;17.62;100.00;100361.91;5064354;28;19956;-57
2023/07/27 10:03:37;;;;;;;;;;;;;;;17.59;100.00;100370.72;5065316;28;19968;-57
2023/07/27 10:06:02;;;;;;;;;;;;;;;17.56;100.00;100362.84;5059989;28;20011;-57
2023/07/27 10:08:28;;;;;;;;;;;;;;;17.59;100.00;100362.81;5065175;28;20282;-57
2023/07/27 10:10:53;;;;;;;;;;;;;;;17.64;100.00;100362.75;5059949;28;19916;-57
2023/07/27 10:13:21;;;;;;;;;;;;;;;17.60;100.00;100363.66;5061893;28;19916;-56
2023/07/27 10:15:48;;;;;;;;;;;;;;;17.71;100.00;100362.66;5060758;28;19955;-57
2023/07/27 10:18:14;;;;;;;;;;;;;;;17.79;100.00;100359.91;5062313;28;19923;-58
2023/07/27 10:20:39;;;;;;;;;;;;;;;17.86;100.00;100361.56;5066279;28;20382;-58
2023/07/27 10:23:11;;;;;;;;;;;;;;;17.86;100.00;100369.47;5061688;28;19923;-57
2023/07/27 10:25:59;;;;;;;;;;;;;;;17.86;100.00;100360.72;5061546;28;19912;-57
2023/07/27 10:28:31;;;;;;;;;;;;;;;17.81;100.00;100362.53;5063452;28;20007;-57
2023/07/27 10:31:17;;;;;;;;;;;;;;;17.81;100.00;100358.09;5065176;28;19912;-59
2023/07/27 10:34:01;;;;;;;;;;;;;;;17.79;100.00;100367.81;5070613;28;19922;-57
2023/07/27 10:36:45;;;;;;;;;;;;;;;17.83;100.00;100368.63;5064835;28;19963;-57
2023/07/27 10:39:13;;;;;;;;;;;;;;;17.86;100.00;100360.72;5065124;28;20026;-57
2023/07/27 10:41:56;;;;;;;;;;;;;;;18.01;100.00;100368.41;5069742;28;19919;-57
2023/07/27 10:44:21;;;;;;;;;;;;;;;17.95;100.00;100365.00;5067200;28;19923;-57
2023/07/27 10:46:47;;;;;;;;;;;;;;;17.92;100.00;100371.19;5067366;28;19920;-56
2023/07/27 10:49:15;;;;;;;;;;;;;;;17.82;100.00;100370.41;5069938;28;19987;-57
2023/07/27 10:51:41;;;;;;;;;;;;;;;17.80;100.00;100364.28;5070049;28;19916;-57
2023/07/27 10:54:08;;;;;;;;;;;;;;;17.86;100.00;100372.09;5071297;28;19919;-57
2023/07/27 10:56:34;;;;;;;;;;;;;;;17.85;100.00;100364.22;5070762;28;19908;-57
2023/07/27 10:59:00;;;;;;;;;;;;;;;17.86;100.00;100365.97;5068213;28;20406;-57
2023/07/27 11:01:26;;;;;;;;;;;;;;;17.86;100.00;100364.19;5069893;28;19963;-57
2023/07/27 11:03:54;;;;;;;;;;;;;;;17.85;100.00;100370.34;5069839;28;20051;-57
2023/07/27 11:06:19;;;;;;;;;;;;;;;17.86;100.00;100371.25;5069758;28;19912;-57
2023/07/27 11:08:45;;;;;;;;;;;;;;;17.85;100.00;100364.22;5068230;28;19919;-57
2023/07/27 11:11:16;;;;;;;;;;;;;;;17.85;100.00;100373.00;5069782;28;19919;-57
2023/07/27 11:13:42;;;;;;;;;;;;;;;17.88;100.00;100362.41;5069276;28;19919;-57
2023/07/27 11:16:07;;;;;;;;;;;;;;;17.89;100.00;100358.88;5070219;28;20381;-57
2023/07/27 11:18:32;;;;;;;;;;;;;;;17.95;100.00;100370.28;5067490;28;19945;-57
2023/07/27 11:20:57;;;;;;;;;;;;;;;17.94;100.00;100353.56;5053134;28;19913;-57
2023/07/27 11:23:23;;;;;;;;;;;;;;;17.97;100.00;100355.28;5053054;28;19924;-57
2023/07/27 11:25:48;;;;;;;;;;;;;;;17.96;100.00;100356.19;5060675;28;19966;-57
2023/07/27 11:28:13;;;;;;;;;;;;;;;18.03;100.00;100352.56;5055235;28;19913;-57
2023/07/27 11:30:39;;;;;;;;;;;;;;;18.13;100.00;100353.31;5053294;28;19924;-57
2023/07/27 11:33:05;;;;;;;;;;;;;;;18.12;100.00;100352.44;5063652;28;19921;-57
2023/07/27 11:35:30;;;;;;;;;;;;;;;18.17;100.00;100357.63;5059019;28;19916;-57
2023/07/27 11:37:56;;;;;;;;;;;;;;;18.16;100.00;100355.88;5061461;28;19918;-57
2023/07/27 11:40:21;;;;;;;;;;;;;;;18.16;100.00;100347.97;5061747;28;20256;-57
2023/07/27 11:42:46;;;;;;;;;;;;;;;18.22;100.00;100354.03;5060355;28;19955;-57
2023/07/27 11:45:12;;;;;;;;;;;;;;;18.20;100.00;100358.44;5064682;28;20382;-57
2023/07/27 11:47:38;;;;;;;;;;;;;;;18.20;100.00;100354.94;5054033;28;19912;-58
2023/07/27 11:50:06;;;;;;;;;;;;;;;18.25;100.00;100356.63;5057886;28;19917;-57
2023/07/27 11:52:31;;;;;;;;;;;;;;;18.25;100.00;100353.97;5071503;28;19915;-57
2023/07/27 11:54:56;;;;;;;;;;;;;;;18.30;100.00;100345.13;5072875;28;19920;-58
2023/07/27 11:57:24;;;;;;;;;;;;;;;18.26;100.00;100346.94;5071439;28;19917;-57
2023/07/27 12:00:14;;;;;;;;;;;;;;;18.27;100.00;100350.47;5070245;28;19971;-58
2023/07/27 12:02:48;;;;;;;;;;;;;;;18.22;100.00;100353.19;5071727;28;19917;-57
2023/07/27 12:05:14;;;;;;;;;;;;;;;18.35;100.00;100351.19;5068871;28;19952;-57
2023/07/27 12:07:39;;;;;;;;;;;;;;;18.37;100.00;100347.63;5062254;28;20314;-56
2023/07/27 12:10:04;;;;;;;;;;;;;;;18.33;100.00;100352.97;5060018;28;19922;-57
2023/07/27 12:12:30;;;;;;;;;;;;;;;18.40;100.00;100352.84;5068503;28;19912;-57
2023/07/27 12:14:58;;;;;;;;;;;;;;;18.38;100.00;100356.44;5067371;28;19908;-57
2023/07/27 12:17:24;;;;;;;;;;;;;;;18.39;100.00;100359.03;5070680;28;19957;-56
2023/07/27 12:19:49;;;;;;;;;;;;;;;18.52;100.00;100357.03;5061221;28;19924;-58
2023/07/27 12:22:14;;;;;;;;;;;;;;;18.62;100.00;100362.19;5062940;28;20007;-56
2023/07/27 12:24:43;;;;;;;;;;;;;;;18.58;100.00;100364.88;5059283;28;19922;-56